Time;durP1;ratioP1;P1;durP2;ratioP2;P2;SDS_P1;SDS_P2;PMS_P1;PMS_P2;Temp;Humidity;BMP_temperature;BMP_pressure;BME280_temperature;BME280_humidity;BME280_pressure;Samples;Min_cycle;Max_cycle;Signal;HPM_P1;HPM_P2
2021/11/22 00:02:19;;;;;;;8.57;4.95;;;8.20;81.70;;;;;;6201737;28;20050;-83
2021/11/22 00:05:21;;;;;;;9.15;4.72;;;8.20;81.60;;;;;;6201206;28;20423;-83
2021/11/22 00:08:24;;;;;;;7.93;4.18;;;8.20;81.50;;;;;;6203988;28;20137;-84
2021/11/22 00:11:25;;;;;;;12.60;4.78;;;8.20;81.60;;;;;;6202984;28;20078;-83
2021/11/22 00:14:28;;;;;;;7.78;5.03;;;8.20;81.50;;;;;;6203188;28;20047;-83
2021/11/22 00:17:31;;;;;;;8.80;4.90;;;8.30;81.50;;;;;;6209021;28;20065;-82
2021/11/22 00:20:33;;;;;;;10.93;5.68;;;8.30;81.50;;;;;;6207234;28;20061;-82
2021/11/22 00:23:35;;;;;;;12.93;7.25;;;8.30;81.40;;;;;;6216254;28;20105;-81
2021/11/22 00:26:36;;;;;;;15.35;7.60;;;8.40;81.50;;;;;;6218600;28;20444;-83
2021/11/22 00:29:40;;;;;;;14.73;7.28;;;8.40;81.40;;;;;;6217534;28;20077;-83
2021/11/22 00:32:44;;;;;;;14.30;8.25;;;8.40;81.50;;;;;;6217206;28;20054;-82
2021/11/22 00:35:48;;;;;;;16.48;8.20;;;8.40;81.70;;;;;;6215794;28;20042;-83
2021/11/22 00:38:53;;;;;;;15.00;7.60;;;8.30;81.80;;;;;;6216952;28;20077;-83
2021/11/22 00:41:55;;;;;;;14.25;8.18;;;8.30;82.30;;;;;;6215449;28;20436;-82
2021/11/22 00:44:58;;;;;;;17.95;9.15;;;8.30;82.90;;;;;;6198407;28;20126;-83
2021/11/22 00:48:01;;;;;;;14.85;9.43;;;8.20;83.40;;;;;;6191584;28;20138;-82
2021/11/22 00:51:03;;;;;;;19.33;9.45;;;8.10;84.50;;;;;;6189039;28;20094;-82
2021/11/22 00:54:05;;;;;;;21.15;9.82;;;8.00;85.20;;;;;;6190699;28;20133;-82
2021/11/22 00:57:07;;;;;;;15.85;9.52;;;8.00;85.30;;;;;;6187055;28;20067;-83
2021/11/22 01:00:15;;;;;;;19.38;9.25;;;8.00;86.40;;;;;;6181063;28;20098;-83
2021/11/22 01:03:17;;;;;;;22.67;11.40;;;7.90;87.50;;;;;;6178045;28;20528;-83
2021/11/22 01:06:19;;;;;;;30.55;14.48;;;7.70;87.70;;;;;;6177749;28;20050;-83
2021/11/22 01:09:21;;;;;;;20.30;9.82;;;7.70;88.00;;;;;;6176550;28;20051;-83
2021/11/22 01:12:25;;;;;;;21.35;10.10;;;7.70;89.20;;;;;;6177374;28;20533;-83
2021/11/22 01:15:31;;;;;;;18.73;9.23;;;7.70;89.10;;;;;;6176500;28;20045;-83
2021/11/22 01:18:33;;;;;;;19.98;11.27;;;7.60;90.10;;;;;;6177065;28;20053;-83
2021/11/22 01:21:35;;;;;;;19.52;10.48;;;7.50;90.40;;;;;;6176242;28;20501;-83
2021/11/22 01:24:37;;;;;;;22.92;12.20;;;7.50;90.60;;;;;;6176618;28;20493;-83
2021/11/22 01:27:39;;;;;;;23.02;11.23;;;7.40;91.00;;;;;;6176157;28;20042;-83
2021/11/22 01:30:43;;;;;;;31.23;13.27;;;7.30;90.90;;;;;;6175841;28;20264;-83
2021/11/22 01:33:45;;;;;;;26.08;9.50;;;7.40;90.90;;;;;;6178091;28;20046;-82
2021/11/22 01:36:47;;;;;;;25.73;13.27;;;7.40;91.50;;;;;;6177211;28;20047;-82
2021/11/22 01:39:49;;;;;;;22.05;11.10;;;7.20;92.10;;;;;;6176178;28;20547;-83
2021/11/22 01:42:54;;;;;;;29.45;12.63;;;7.10;92.30;;;;;;6177027;28;20047;-82
2021/11/22 01:45:57;;;;;;;22.92;11.43;;;7.10;92.70;;;;;;6204301;28;20058;-82
2021/11/22 01:49:00;;;;;;;24.95;12.00;;;7.00;92.90;;;;;;6214014;28;20108;-83
2021/11/22 01:52:02;;;;;;;25.77;11.80;;;6.90;93.20;;;;;;6215589;28;20069;-82
2021/11/22 01:55:04;;;;;;;26.98;10.57;;;6.90;93.40;;;;;;6205041;28;20127;-82
2021/11/22 01:58:07;;;;;;;21.52;10.48;;;7.00;93.70;;;;;;6189798;28;20070;-83
2021/11/22 02:01:10;;;;;;;24.90;9.60;;;7.00;93.80;;;;;;6187472;28;20054;-82
2021/11/22 02:04:15;;;;;;;18.65;9.75;;;7.00;93.90;;;;;;6188523;28;20058;-83
2021/11/22 02:07:19;;;;;;;20.52;9.38;;;7.00;93.90;;;;;;6186375;28;20051;-83
2021/11/22 02:10:23;;;;;;;22.13;9.95;;;7.10;93.90;;;;;;6186561;28;20070;-83
2021/11/22 02:13:25;;;;;;;19.52;8.43;;;6.90;93.90;;;;;;6185040;28;20074;-82
2021/11/22 02:16:29;;;;;;;13.05;6.18;;;6.90;94.10;;;;;;6182233;28;20070;-82
2021/11/22 02:19:30;;;;;;;22.88;8.63;;;6.90;94.20;;;;;;6179508;28;20101;-83
2021/11/22 02:22:35;;;;;;;16.67;7.55;;;6.80;94.30;;;;;;6179427;28;20061;-82
2021/11/22 02:25:39;;;;;;;23.02;10.38;;;6.80;94.30;;;;;;6180198;28;20039;-82
2021/11/22 02:28:42;;;;;;;24.50;9.02;;;6.80;94.50;;;;;;6178748;28;20505;-82
2021/11/22 02:31:43;;;;;;;23.50;9.85;;;6.80;94.50;;;;;;6188588;28;20056;-82
2021/11/22 02:34:45;;;;;;;22.83;8.90;;;6.90;94.50;;;;;;6201420;28;20074;-81
2021/11/22 02:37:49;;;;;;;21.50;9.70;;;7.00;94.50;;;;;;6186473;28;20051;-83
2021/11/22 02:40:51;;;;;;;21.40;10.15;;;7.10;94.40;;;;;;6179027;28;20061;-82
2021/11/22 02:43:55;;;;;;;18.67;8.18;;;7.10;94.30;;;;;;6179766;28;20053;-81
2021/11/22 02:46:57;;;;;;;19.17;8.73;;;7.10;94.40;;;;;;6191231;28;20042;-82
2021/11/22 02:49:59;;;;;;;23.30;9.73;;;7.10;94.40;;;;;;6202927;28;20118;-83
2021/11/22 02:53:03;;;;;;;23.75;8.57;;;7.10;94.40;;;;;;6202727;28;20050;-83
2021/11/22 02:56:07;;;;;;;27.60;10.18;;;7.10;94.50;;;;;;6202863;28;20134;-83
2021/11/22 02:59:09;;;;;;;19.92;8.63;;;7.10;94.50;;;;;;6204281;28;20050;-83
2021/11/22 03:02:13;;;;;;;22.67;10.00;;;7.00;94.50;;;;;;6203932;28;20092;-83
2021/11/22 03:05:16;;;;;;;17.63;8.80;;;7.00;94.60;;;;;;6204694;28;20042;-83
2021/11/22 03:08:19;;;;;;;19.48;8.95;;;7.00;94.70;;;;;;6209520;28;20046;-84
2021/11/22 03:11:21;;;;;;;21.17;8.90;;;7.10;94.70;;;;;;6204613;28;20105;-84
2021/11/22 03:14:25;;;;;;;23.00;9.57;;;7.20;94.70;;;;;;6204086;28;20150;-83
2021/11/22 03:17:26;;;;;;;20.60;8.27;;;7.20;94.60;;;;;;6204111;28;20050;-83
2021/11/22 03:20:28;;;;;;;21.77;8.50;;;7.20;94.70;;;;;;6203268;28;20078;-84
2021/11/22 03:23:33;;;;;;;26.95;9.90;;;7.20;94.60;;;;;;6204536;28;20626;-83
2021/11/22 03:26:35;;;;;;;18.67;8.82;;;7.20;94.60;;;;;;6203620;28;20058;-83
2021/11/22 03:29:37;;;;;;;18.08;6.88;;;7.20;94.70;;;;;;6202836;28;20049;-83
2021/11/22 03:32:39;;;;;;;11.68;6.38;;;7.30;94.60;;;;;;6203947;28;20173;-84
2021/11/22 03:35:42;;;;;;;22.42;7.97;;;7.20;94.60;;;;;;6215654;28;20161;-83
2021/11/22 03:38:45;;;;;;;16.63;7.57;;;7.10;94.60;;;;;;6203038;28;20046;-82
2021/11/22 03:41:48;;;;;;;18.63;8.05;;;7.10;94.90;;;;;;6204581;28;20050;-82
2021/11/22 03:44:50;;;;;;;20.65;7.95;;;7.20;95.00;;;;;;6200921;28;20133;-84
2021/11/22 03:47:52;;;;;;;16.35;7.78;;;7.20;94.90;;;;;;6176042;28;20137;-84
2021/11/22 03:50:54;;;;;;;19.02;7.97;;;7.20;94.90;;;;;;6176805;28;20390;-84
2021/11/22 03:53:57;;;;;;;17.17;7.57;;;7.30;94.90;;;;;;6176860;28;20114;-84
2021/11/22 03:56:59;;;;;;;13.52;7.35;;;7.40;94.70;;;;;;6176120;28;20133;-83
2021/11/22 04:00:01;;;;;;;14.07;5.75;;;7.30;94.70;;;;;;6175732;28;20533;-83
2021/11/22 04:03:03;;;;;;;13.95;6.45;;;7.30;94.70;;;;;;6176069;28;20420;-84
2021/11/22 04:06:05;;;;;;;12.55;5.72;;;7.30;94.80;;;;;;6175872;28;20092;-84
2021/11/22 04:09:08;;;;;;;12.07;5.93;;;7.30;94.70;;;;;;6175379;28;20509;-84
2021/11/22 04:12:10;;;;;;;13.27;5.68;;;7.30;94.80;;;;;;6176387;28;20145;-83
2021/11/22 04:15:11;;;;;;;15.15;5.80;;;7.20;94.90;;;;;;6175449;28;20150;-83
2021/11/22 04:18:14;;;;;;;17.45;6.45;;;7.20;94.80;;;;;;6175297;28;20051;-84
2021/11/22 04:21:18;;;;;;;12.23;5.55;;;7.30;95.00;;;;;;6175180;28;20054;-84
2021/11/22 04:24:21;;;;;;;12.45;5.47;;;7.40;94.90;;;;;;6176222;28;20109;-84
2021/11/22 04:27:23;;;;;;;14.93;4.90;;;7.40;94.90;;;;;;6185838;28;20101;-84
2021/11/22 04:30:25;;;;;;;12.55;5.63;;;7.50;94.80;;;;;;6177468;28;20109;-83
2021/11/22 04:33:27;;;;;;;12.98;5.53;;;7.50;94.80;;;;;;6176232;28;20043;-82
2021/11/22 04:36:28;;;;;;;13.68;5.18;;;7.50;94.60;;;;;;6177884;28;20137;-83
2021/11/22 04:39:32;;;;;;;17.95;6.50;;;7.50;94.60;;;;;;6175627;28;20141;-83
2021/11/22 04:42:34;;;;;;;16.17;7.97;;;7.60;94.50;;;;;;6175293;28;20057;-83
2021/11/22 04:45:36;;;;;;;16.48;7.35;;;7.60;94.40;;;;;;6175627;28;20125;-83
2021/11/22 04:48:38;;;;;;;15.13;7.28;;;7.50;94.60;;;;;;6198089;28;20180;-81
2021/11/22 04:51:40;;;;;;;16.83;6.70;;;7.50;94.60;;;;;;6199298;28;20503;-83
2021/11/22 04:54:44;;;;;;;17.60;6.88;;;7.50;94.70;;;;;;6199431;28;20147;-83
2021/11/22 04:57:46;;;;;;;18.90;6.78;;;7.60;94.60;;;;;;6199113;28;20460;-83
2021/11/22 05:00:48;;;;;;;18.08;7.07;;;7.60;94.50;;;;;;6198239;28;20050;-83
2021/11/22 05:03:50;;;;;;;15.95;6.32;;;7.60;94.50;;;;;;6199736;28;20065;-83
2021/11/22 05:06:52;;;;;;;16.63;6.53;;;7.50;94.40;;;;;;6198856;28;20523;-83
2021/11/22 05:09:55;;;;;;;11.82;6.25;;;7.50;94.50;;;;;;6198891;28;20132;-83
2021/11/22 05:12:57;;;;;;;16.35;7.10;;;7.50;94.50;;;;;;6198838;28;20050;-83
2021/11/22 05:15:59;;;;;;;17.73;7.30;;;7.50;94.70;;;;;;6199709;28;20517;-82
2021/11/22 05:19:01;;;;;;;20.75;7.57;;;7.40;94.60;;;;;;6202524;28;20069;-82
2021/11/22 05:22:04;;;;;;;14.35;8.10;;;7.50;94.80;;;;;;6204064;28;20631;-82
2021/11/22 05:25:08;;;;;;;19.60;8.07;;;7.40;94.70;;;;;;6203645;28;20393;-82
2021/11/22 05:28:11;;;;;;;22.20;7.85;;;7.40;95.00;;;;;;6203760;28;20496;-82
2021/11/22 05:31:12;;;;;;;22.25;8.70;;;7.40;95.20;;;;;;6203066;28;20052;-83
2021/11/22 05:34:17;;;;;;;19.52;8.63;;;7.40;95.40;;;;;;6203757;28;20050;-82
2021/11/22 05:37:20;;;;;;;17.73;7.63;;;7.40;95.30;;;;;;6203185;28;20043;-82
2021/11/22 05:40:24;;;;;;;20.20;8.27;;;7.40;95.30;;;;;;6203202;28;20132;-82
2021/11/22 05:43:27;;;;;;;17.02;7.15;;;7.40;95.50;;;;;;6202969;28;20060;-83
2021/11/22 05:46:28;;;;;;;21.77;8.20;;;7.40;95.70;;;;;;6202790;28;20407;-84
2021/11/22 05:49:32;;;;;;;23.58;7.85;;;7.40;95.50;;;;;;6187885;28;20125;-82
2021/11/22 05:52:39;;;;;;;17.25;7.00;;;7.20;95.30;;;;;;6202753;28;20408;-83
2021/11/22 05:55:44;;;;;;;15.68;7.78;;;7.20;95.60;;;;;;6202345;28;20129;-83
2021/11/22 05:58:46;;;;;;;18.10;7.38;;;7.30;95.90;;;;;;6201973;28;20047;-83
2021/11/22 06:01:48;;;;;;;21.00;8.25;;;7.30;96.00;;;;;;6202491;28;20137;-83
2021/11/22 06:04:50;;;;;;;22.80;7.70;;;7.40;95.80;;;;;;6201884;28;20137;-83
2021/11/22 06:07:52;;;;;;;17.00;7.78;;;7.40;95.70;;;;;;6203442;28;20061;-83
2021/11/22 06:10:55;;;;;;;19.20;7.85;;;7.40;95.70;;;;;;6205515;28;20042;-82
2021/11/22 06:13:57;;;;;;;20.38;6.93;;;7.40;95.90;;;;;;6216854;28;20046;-80
2021/11/22 06:16:59;;;;;;;17.88;7.70;;;7.40;95.90;;;;;;6209439;28;20060;-82
2021/11/22 06:20:01;;;;;;;14.38;6.63;;;7.40;96.20;;;;;;6202717;28;20060;-81
2021/11/22 06:23:03;;;;;;;20.77;7.32;;;7.40;95.90;;;;;;6202824;28;20196;-82
2021/11/22 06:26:06;;;;;;;19.63;6.97;;;7.40;95.90;;;;;;6203059;28;20141;-82
2021/11/22 06:29:09;;;;;;;16.77;7.05;;;7.40;95.90;;;;;;6202726;28;20046;-82
2021/11/22 06:32:11;;;;;;;19.35;7.50;;;7.40;95.90;;;;;;6204182;28;20061;-82
2021/11/22 06:35:13;;;;;;;16.23;6.40;;;7.30;95.90;;;;;;6203344;28;20101;-83
2021/11/22 06:38:15;;;;;;;19.48;7.30;;;7.40;96.10;;;;;;6203278;28;20054;-82
2021/11/22 06:41:18;;;;;;;18.90;7.75;;;7.30;96.10;;;;;;6204249;28;20042;-83
2021/11/22 06:44:21;;;;;;;16.77;6.68;;;7.30;96.20;;;;;;6205256;28;20054;-83
2021/11/22 06:47:24;;;;;;;21.95;8.15;;;7.30;96.10;;;;;;6205391;28;20134;-81
2021/11/22 06:50:26;;;;;;;21.25;7.53;;;7.30;96.10;;;;;;6205986;28;20061;-83
2021/11/22 06:53:28;;;;;;;28.40;8.82;;;7.30;96.20;;;;;;6207391;28;20056;-83
2021/11/22 06:56:31;;;;;;;20.27;7.65;;;7.30;96.40;;;;;;6206880;28;20050;-83
2021/11/22 06:59:34;;;;;;;24.55;8.75;;;7.40;96.30;;;;;;6206629;28;20500;-82
2021/11/22 07:02:37;;;;;;;24.08;10.77;;;7.40;96.30;;;;;;6205949;28;20520;-83
2021/11/22 07:05:39;;;;;;;31.17;9.20;;;7.40;96.30;;;;;;6204235;28;20050;-83
2021/11/22 07:08:41;;;;;;;28.23;9.55;;;7.40;96.50;;;;;;6205294;28;20047;-82
2021/11/22 07:11:46;;;;;;;30.20;10.75;;;7.40;96.30;;;;;;6205193;28;20133;-83
2021/11/22 07:14:48;;;;;;;26.25;9.43;;;7.40;96.40;;;;;;6203876;28;20101;-82
2021/11/22 07:17:50;;;;;;;26.90;10.43;;;7.50;96.40;;;;;;6204981;28;20050;-82
2021/11/22 07:20:52;;;;;;;32.08;11.48;;;7.60;96.40;;;;;;6204042;28;20491;-83
2021/11/22 07:23:54;;;;;;;34.50;11.98;;;7.50;96.20;;;;;;6206293;28;20058;-82
2021/11/22 07:26:57;;;;;;;40.15;11.63;;;7.60;96.40;;;;;;6212887;28;20128;-82
2021/11/22 07:29:59;;;;;;;33.15;11.63;;;7.60;96.40;;;;;;6207759;28;20054;-82
2021/11/22 07:33:01;;;;;;;38.20;11.60;;;7.70;96.40;;;;;;6208482;28;20060;-83
2021/11/22 07:36:03;;;;;;;37.88;13.80;;;7.70;96.30;;;;;;6207242;28;20137;-83
2021/11/22 07:39:05;;;;;;;44.08;13.70;;;7.70;96.20;;;;;;6206889;28;20050;-82
2021/11/22 07:42:09;;;;;;;44.85;14.40;;;7.70;96.10;;;;;;6207520;28;20105;-83
2021/11/22 07:45:10;;;;;;;51.13;15.30;;;7.80;96.30;;;;;;6206965;28;20050;-83
2021/11/22 07:48:14;;;;;;;55.88;15.98;;;7.80;96.10;;;;;;6206904;28;20625;-83
2021/11/22 07:51:16;;;;;;;46.90;15.13;;;7.90;96.10;;;;;;6199436;28;20078;-83
2021/11/22 07:54:18;;;;;;;48.45;13.70;;;7.80;96.10;;;;;;6211924;28;20109;-82
2021/11/22 07:57:21;;;;;;;67.30;16.40;;;7.80;96.00;;;;;;6210617;28;20398;-83
2021/11/22 08:00:25;;;;;;;55.40;16.00;;;7.80;95.90;;;;;;6209490;28;20054;-83
2021/11/22 08:03:27;;;;;;;48.60;14.00;;;7.80;96.20;;;;;;6209002;28;20154;-82
2021/11/22 08:06:29;;;;;;;49.05;15.60;;;7.90;96.30;;;;;;6206102;28;20046;-83
2021/11/22 08:09:32;;;;;;;57.15;17.08;;;7.90;96.10;;;;;;6204133;28;20050;-81
2021/11/22 08:12:38;;;;;;;53.65;15.85;;;7.90;96.10;;;;;;6204005;28;20496;-83
2021/11/22 08:15:40;;;;;;;56.05;15.05;;;7.90;96.00;;;;;;6157700;28;20078;-84
2021/11/22 08:18:42;;;;;;;56.85;16.58;;;8.00;96.00;;;;;;6201890;28;20124;-82
2021/11/22 08:21:44;;;;;;;57.85;19.27;;;8.00;96.10;;;;;;6202687;28;20110;-82
2021/11/22 08:24:50;;;;;;;65.15;30.00;;;8.00;96.10;;;;;;6193651;28;20054;-82
2021/11/22 08:27:55;;;;;;;113.88;52.13;;;8.10;96.00;;;;;;6179043;28;20500;-81
2021/11/22 08:30:57;;;;;;;67.50;32.90;;;8.00;95.80;;;;;;6179522;28;20105;-80
2021/11/22 08:33:59;;;;;;;56.65;16.65;;;8.00;96.20;;;;;;6180537;28;20420;-82
2021/11/22 08:37:00;;;;;;;44.05;14.75;;;8.00;96.10;;;;;;6179577;28;20055;-82
2021/11/22 08:40:03;;;;;;;41.72;14.10;;;8.00;96.20;;;;;;6177964;28;20054;-82
2021/11/22 08:43:07;;;;;;;33.28;12.55;;;8.10;96.10;;;;;;6178323;28;20125;-81
2021/11/22 08:46:09;;;;;;;46.70;15.90;;;8.20;96.20;;;;;;6183489;28;20046;-80
2021/11/22 08:49:11;;;;;;;37.67;14.15;;;8.20;96.10;;;;;;6201866;28;20066;-81
2021/11/22 08:52:13;;;;;;;44.92;11.80;;;8.30;95.90;;;;;;6190306;28;20465;-80
2021/11/22 08:55:18;;;;;;;32.60;10.57;;;8.30;96.10;;;;;;6184760;28;20088;-82
2021/11/22 08:58:21;;;;;;;40.55;12.68;;;8.40;95.70;;;;;;6184928;28;20050;-82
2021/11/22 09:01:23;;;;;;;32.83;12.02;;;8.40;95.80;;;;;;6183089;28;20200;-80
2021/11/22 09:04:26;;;;;;;42.20;11.93;;;8.30;95.70;;;;;;6186480;28;20055;-80
2021/11/22 09:07:28;;;;;;;30.13;10.07;;;8.20;95.60;;;;;;6183740;28;20086;-82
2021/11/22 09:10:30;;;;;;;27.98;11.07;;;8.30;95.80;;;;;;6182792;28;20047;-80
2021/11/22 09:13:33;;;;;;;39.63;11.73;;;8.30;95.90;;;;;;6199632;28;20088;-81
2021/11/22 09:16:35;;;;;;;37.00;11.00;;;8.20;95.60;;;;;;6213183;28;20531;-81
2021/11/22 09:19:37;;;;;;;31.92;11.48;;;8.20;95.60;;;;;;6212835;28;20113;-82
2021/11/22 09:22:40;;;;;;;31.73;11.20;;;8.20;95.90;;;;;;6208225;28;20052;-82
2021/11/22 09:25:42;;;;;;;24.92;9.82;;;8.20;95.70;;;;;;6210485;28;20042;-81
2021/11/22 09:28:46;;;;;;;21.98;9.13;;;8.30;96.00;;;;;;6208846;28;20054;-81
2021/11/22 09:31:48;;;;;;;34.58;10.30;;;8.40;96.00;;;;;;6208735;28;20058;-83
2021/11/22 09:34:50;;;;;;;38.28;10.93;;;8.40;95.60;;;;;;6207918;28;20050;-80
2021/11/22 09:37:51;;;;;;;27.30;9.57;;;8.50;95.90;;;;;;6191536;28;20054;-80
2021/11/22 09:40:53;;;;;;;21.08;8.95;;;8.50;95.70;;;;;;6189244;28;20133;-81
2021/11/22 09:43:58;;;;;;;20.92;8.95;;;8.50;95.50;;;;;;6183293;28;20078;-81
2021/11/22 09:47:00;;;;;;;22.75;9.43;;;8.60;95.90;;;;;;6193262;28;20105;-82
2021/11/22 09:50:03;;;;;;;28.42;15.40;;;8.60;95.60;;;;;;6207252;28;20101;-83
2021/11/22 09:53:06;;;;;;;24.27;9.68;;;8.60;95.40;;;;;;6201667;28;20505;-81
2021/11/22 09:56:08;;;;;;;22.77;9.10;;;8.60;95.30;;;;;;6209105;28;20054;-81
2021/11/22 09:59:11;;;;;;;25.27;10.70;;;8.60;95.30;;;;;;6207316;28;20165;-81
2021/11/22 10:02:13;;;;;;;34.03;11.82;;;8.60;95.40;;;;;;6213746;28;20450;-80
2021/11/22 10:05:24;;;;;;;23.95;9.75;;;8.70;95.70;;;;;;6208722;28;20050;-81
2021/11/22 10:08:27;;;;;;;28.75;10.00;;;8.70;95.20;;;;;;6205647;28;20129;-81
2021/11/22 10:11:29;;;;;;;22.80;8.77;;;8.60;95.00;;;;;;6205176;28;20137;-81
2021/11/22 10:14:38;;;;;;;21.10;9.93;;;8.50;95.00;;;;;;6205754;28;20046;-81
2021/11/22 10:17:40;;;;;;;23.13;9.65;;;8.50;95.50;;;;;;6201611;28;20050;-81
2021/11/22 10:20:42;;;;;;;21.90;8.90;;;8.50;95.50;;;;;;6205316;28;20197;-80
2021/11/22 10:23:46;;;;;;;25.00;8.70;;;8.60;95.70;;;;;;6206124;28;20488;-80
2021/11/22 10:26:50;;;;;;;25.25;8.95;;;8.80;95.90;;;;;;6205701;28;20465;-81
2021/11/22 10:29:53;;;;;;;12.93;7.00;;;8.90;95.60;;;;;;6205114;28;20836;-80
2021/11/22 10:32:56;;;;;;;23.73;8.40;;;9.00;95.20;;;;;;6203533;28;20053;-80
2021/11/22 10:36:00;;;;;;;18.70;7.25;;;9.00;95.10;;;;;;6180898;28;20059;-80
2021/11/22 10:39:03;;;;;;;15.73;8.27;;;9.10;95.40;;;;;;6178664;28;20053;-80
2021/11/22 10:42:25;;;;;;;19.58;8.65;;;9.00;94.80;;;;;;6179315;28;20113;-80
2021/11/22 10:45:32;;;;;;;19.55;8.07;;;9.00;94.90;;;;;;6180031;28;20078;-81
2021/11/22 10:48:35;;;;;;;15.27;8.37;;;9.00;94.90;;;;;;6202743;28;20405;-81
2021/11/22 10:51:41;;;;;;;12.88;6.13;;;8.80;94.80;;;;;;6202819;28;20137;-81
2021/11/22 10:54:54;;;;;;;15.95;7.18;;;8.90;94.90;;;;;;6202995;28;20125;-81
2021/11/22 10:57:57;;;;;;;15.63;6.80;;;8.80;95.00;;;;;;6203270;28;20042;-80
2021/11/22 11:01:20;;;;;;;12.82;6.82;;;8.90;95.10;;;;;;6202814;28;20114;-79
2021/11/22 11:04:23;;;;;;;14.32;6.00;;;9.00;95.00;;;;;;6203200;28;20487;-80
2021/11/22 11:07:29;;;;;;;14.60;6.57;;;9.00;95.10;;;;;;6202587;28;20065;-79
2021/11/22 11:10:32;;;;;;;14.30;6.45;;;9.10;94.70;;;;;;6202023;28;20530;-80
2021/11/22 11:13:43;;;;;;;16.83;6.60;;;9.10;94.90;;;;;;6202455;28;20046;-80
2021/11/22 11:16:46;;;;;;;16.25;6.68;;;9.20;94.90;;;;;;6202141;28;20062;-80
2021/11/22 11:19:50;;;;;;;14.52;6.45;;;9.30;94.80;;;;;;6194689;28;20053;-80
2021/11/22 11:22:53;;;;;;;15.25;6.88;;;9.30;94.10;;;;;;6202366;28;20057;-81
2021/11/22 11:25:54;;;;;;;11.80;5.05;;;9.30;94.10;;;;;;6202531;28;20060;-80
2021/11/22 11:28:57;;;;;;;11.77;6.55;;;9.30;94.20;;;;;;6202162;28;20060;-80
2021/11/22 11:32:00;;;;;;;12.13;5.00;;;9.30;94.40;;;;;;6203098;28;20511;-80
2021/11/22 11:35:05;;;;;;;15.45;6.47;;;9.30;94.10;;;;;;6202393;28;20054;-80
2021/11/22 11:38:15;;;;;;;14.13;5.93;;;9.30;94.30;;;;;;6202252;28;20052;-79
2021/11/22 11:41:32;;;;;;;15.32;6.40;;;9.40;94.00;;;;;;6201781;28;20050;-79
2021/11/22 11:44:50;;;;;;;18.15;5.32;;;9.30;94.00;;;;;;6202810;28;20046;-80
2021/11/22 11:48:06;;;;;;;10.05;4.85;;;9.40;93.70;;;;;;6205762;28;20054;-80
2021/11/22 11:51:14;;;;;;;15.23;5.47;;;9.30;93.90;;;;;;6202448;28;20050;-80
2021/11/22 11:54:17;;;;;;;;;;;9.50;94.00;;;;;;6202555;28;20532;-80
2021/11/22 11:57:21;;;;;;;12.60;4.55;;;9.60;93.70;;;;;;6208035;28;19956;-80
2021/11/22 12:00:25;;;;;;;8.75;5.15;;;9.60;93.70;;;;;;6208593;28;20050;-80
2021/11/22 12:03:31;;;;;;;11.68;4.68;;;9.70;93.50;;;;;;6207343;28;20105;-80
2021/11/22 12:06:48;;;;;;;18.85;4.25;;;9.80;93.20;;;;;;6206818;28;20058;-80
2021/11/22 12:10:01;;;;;;;9.95;3.63;;;9.70;93.40;;;;;;6202014;28;20046;-80
2021/11/22 12:13:05;;;;;;;5.72;2.97;;;9.70;93.10;;;;;;6202276;28;20102;-80
2021/11/22 12:16:07;;;;;;;15.10;3.50;;;9.60;93.10;;;;;;6202011;28;20054;-80
2021/11/22 12:19:36;;;;;;;7.13;2.85;;;9.70;93.50;;;;;;6200543;28;20038;-80
2021/11/22 12:22:39;;;;;;;4.60;3.17;;;9.80;92.70;;;;;;6203128;28;20054;-81
2021/11/22 12:25:44;;;;;;;5.00;2.42;;;9.70;92.80;;;;;;6202846;28;20103;-80
2021/11/22 12:28:48;;;;;;;4.70;2.78;;;9.70;92.90;;;;;;6203441;28;20046;-79
2021/11/22 12:31:50;;;;;;;7.80;2.33;;;9.90;93.10;;;;;;6206169;28;20116;-79
2021/11/22 12:34:57;;;;;;;10.82;3.90;;;10.00;92.70;;;;;;6205817;28;20165;-79
2021/11/22 12:38:18;;;;;;;6.43;1.87;;;9.90;92.30;;;;;;6202823;28;20046;-80
2021/11/22 12:41:23;;;;;;;4.85;1.55;;;9.90;92.20;;;;;;6201641;28;20316;-80
2021/11/22 12:44:31;;;;;;;3.03;1.15;;;9.70;91.70;;;;;;6204942;28;20622;-80
2021/11/22 12:47:33;;;;;;;1.85;1.17;;;9.70;92.00;;;;;;6199520;28;20042;-80
2021/11/22 12:50:55;;;;;;;3.65;1.63;;;9.60;91.80;;;;;;6199753;28;20046;-79
2021/11/22 12:54:19;;;;;;;7.18;1.52;;;9.30;91.60;;;;;;6202133;28;20126;-82
2021/11/22 12:57:23;;;;;;;4.13;1.05;;;9.30;91.70;;;;;;6201282;28;20057;-81
2021/11/22 13:00:33;;;;;;;3.55;1.23;;;9.30;91.50;;;;;;6201925;28;20061;-81
2021/11/22 13:03:51;;;;;;;3.75;1.15;;;9.40;91.70;;;;;;6200125;28;20049;-81
2021/11/22 13:06:55;;;;;;;2.78;0.70;;;9.50;91.90;;;;;;6203553;28;20049;-82
2021/11/22 13:09:56;;;;;;;3.65;1.00;;;9.70;91.70;;;;;;6203280;28;20070;-79
2021/11/22 13:13:00;;;;;;;1.83;0.80;;;10.10;91.70;;;;;;6202978;28;20060;-81
2021/11/22 13:16:03;;;;;;;2.13;0.50;;;10.30;91.30;;;;;;6204562;28;20054;-79
2021/11/22 13:19:08;;;;;;;1.27;0.57;;;10.60;91.10;;;;;;6201112;28;20511;-80
2021/11/22 13:22:14;;;;;;;1.20;0.73;;;11.00;90.30;;;;;;6200311;28;20057;-79
2021/11/22 13:25:17;;;;;;;1.52;1.15;;;10.90;89.80;;;;;;6201082;28;20049;-79
2021/11/22 13:28:22;;;;;;;3.13;0.45;;;10.80;88.80;;;;;;6188134;28;20433;-81
2021/11/22 13:31:27;;;;;;;0.73;0.45;;;10.70;87.90;;;;;;6198464;28;20047;-81
2021/11/22 13:34:31;;;;;;;2.08;0.45;;;10.60;87.20;;;;;;6203849;28;20503;-80
2021/11/22 13:37:34;;;;;;;4.90;0.80;;;10.50;89.00;;;;;;6202304;28;20370;-80
2021/11/22 13:40:36;;;;;;;2.67;0.65;;;10.50;88.30;;;;;;6205224;28;20054;-80
2021/11/22 13:43:39;;;;;;;4.93;0.95;;;10.60;88.30;;;;;;6206298;28;20057;-79
2021/11/22 13:46:41;;;;;;;1.98;0.80;;;10.70;88.00;;;;;;6208170;28;20488;-80
2021/11/22 13:49:43;;;;;;;2.65;0.52;;;10.80;86.50;;;;;;6204229;28;20074;-80
2021/11/22 13:52:46;;;;;;;1.60;0.70;;;10.60;86.00;;;;;;6186117;28;20580;-80
2021/11/22 13:55:48;;;;;;;3.60;1.02;;;10.50;86.00;;;;;;6185897;28;20134;-80
2021/11/22 13:58:51;;;;;;;5.57;0.80;;;10.50;85.50;;;;;;6184618;28;20110;-80
2021/11/22 14:01:56;;;;;;;1.65;0.63;;;10.30;84.60;;;;;;6183054;28;20052;-79
2021/11/22 14:05:00;;;;;;;2.15;0.68;;;10.20;84.30;;;;;;6181272;28;20263;-80
2021/11/22 14:08:04;;;;;;;2.00;0.60;;;10.30;84.80;;;;;;6180928;28;20054;-79
2021/11/22 14:11:19;;;;;;;5.80;0.35;;;10.40;84.10;;;;;;6178358;28;20133;-79
2021/11/22 14:14:23;;;;;;;0.90;0.55;;;10.30;81.40;;;;;;6183662;28;20055;-80
2021/11/22 14:17:25;;;;;;;2.50;0.73;;;10.20;81.00;;;;;;6202591;28;20177;-80
2021/11/22 14:20:27;;;;;;;6.03;0.60;;;10.20;81.00;;;;;;6207851;28;20056;-79
2021/11/22 14:23:33;;;;;;;2.90;1.85;;;10.10;80.90;;;;;;6206565;28;20096;-81
2021/11/22 14:26:35;;;;;;;1.55;0.70;;;10.20;80.70;;;;;;6204507;28;20158;-79
2021/11/22 14:29:37;;;;;;;4.03;0.88;;;10.20;79.90;;;;;;6193791;28;20049;-80
2021/11/22 14:32:41;;;;;;;5.10;0.82;;;10.20;77.60;;;;;;6208702;28;20114;-80
2021/11/22 14:35:54;;;;;;;4.18;0.90;;;10.10;78.00;;;;;;6211230;28;20065;-81
2021/11/22 14:38:58;;;;;;;1.92;0.95;;;10.00;77.50;;;;;;6180908;28;20066;-80
2021/11/22 14:42:07;;;;;;;7.55;0.90;;;10.00;77.70;;;;;;6181359;28;20145;-80
2021/11/22 14:45:09;;;;;;;3.90;1.50;;;10.00;79.00;;;;;;6199880;28;20181;-80
2021/11/22 14:48:19;;;;;;;1.90;0.80;;;10.20;79.90;;;;;;6204240;28;20393;-80
2021/11/22 14:51:25;;;;;;;2.63;0.80;;;10.20;79.30;;;;;;6198421;28;20107;-79
2021/11/22 14:54:33;;;;;;;1.55;0.90;;;10.20;78.70;;;;;;6207174;28;20053;-80
2021/11/22 14:57:36;;;;;;;2.50;1.00;;;10.20;78.00;;;;;;6212744;28;20057;-79
2021/11/22 15:00:42;;;;;;;3.95;0.90;;;10.10;79.00;;;;;;6216576;28;20102;-80
2021/11/22 15:03:44;;;;;;;3.28;1.15;;;10.10;78.70;;;;;;6219550;28;20092;-80
2021/11/22 15:06:47;;;;;;;2.38;1.10;;;10.10;80.70;;;;;;6216860;28;20085;-80
2021/11/22 15:09:53;;;;;;;10.02;1.40;;;10.00;80.00;;;;;;6213598;28;20061;-79
2021/11/22 15:12:55;;;;;;;5.53;1.45;;;10.00;80.50;;;;;;6217705;28;20101;-80
2021/11/22 15:15:57;;;;;;;2.65;0.70;;;10.00;79.80;;;;;;6212924;28;20470;-79
2021/11/22 15:18:59;;;;;;;0.85;0.52;;;9.90;79.40;;;;;;6204757;28;20055;-78
2021/11/22 15:22:02;;;;;;;3.03;0.85;;;9.80;79.30;;;;;;6194505;28;20154;-78
2021/11/22 15:25:07;;;;;;;0.90;0.73;;;9.80;80.90;;;;;;6190670;28;20054;-79
2021/11/22 15:28:15;;;;;;;1.27;0.90;;;9.70;79.20;;;;;;6196171;28;20058;-78
2021/11/22 15:31:17;;;;;;;2.78;1.25;;;9.70;80.80;;;;;;6194098;28;20047;-80
2021/11/22 15:34:19;;;;;;;12.57;1.45;;;9.60;79.80;;;;;;6194833;28;20074;-80
2021/11/22 15:37:21;;;;;;;2.45;0.90;;;9.60;80.70;;;;;;6194424;28;20101;-79
2021/11/22 15:40:25;;;;;;;2.75;1.85;;;9.70;81.30;;;;;;6195776;28;20348;-80
2021/11/22 15:43:26;;;;;;;2.92;2.65;;;9.80;80.10;;;;;;6194467;28;20085;-79
2021/11/22 15:46:28;;;;;;;3.15;2.13;;;9.80;79.60;;;;;;6206954;28;20532;-79
2021/11/22 15:49:31;;;;;;;1.85;0.60;;;9.70;78.10;;;;;;6219298;28;20082;-80
2021/11/22 15:52:38;;;;;;;1.80;0.80;;;9.60;78.40;;;;;;6205116;28;20046;-79
2021/11/22 15:55:41;;;;;;;2.55;0.45;;;9.50;78.30;;;;;;6219345;28;20046;-78